createdAt,value
2022-09-25T00:01:26.597Z,64.80
2022-09-25T00:03:54.790Z,65.14
2022-09-25T00:06:26.184Z,65.09
2022-09-25T00:08:55.354Z,65.26
2022-09-25T00:11:28.061Z,65.94
2022-09-25T00:13:57.590Z,65.36
2022-09-25T00:16:30.612Z,66.23
2022-09-25T00:19:18.599Z,66.19
2022-09-25T00:21:52.924Z,66.38
2022-09-25T00:24:22.336Z,65.47
2022-09-25T00:26:50.760Z,66.49
2022-09-25T00:29:20.650Z,67.17
2022-09-25T00:31:48.906Z,67.08
2022-09-25T00:34:17.210Z,67.46
2022-09-25T00:36:45.430Z,67.42
2022-09-25T00:39:13.904Z,68.47
2022-09-25T00:41:42.220Z,68.97
2022-09-25T00:44:56.646Z,69.25
2022-09-25T00:47:27.779Z,69.32
2022-09-25T00:50:01.781Z,68.29
2022-09-25T00:52:31.802Z,68.99
2022-09-25T00:55:07.586Z,68.89
2022-09-25T00:57:41.765Z,70.90
2022-09-25T01:00:12.843Z,69.99
2022-09-25T01:02:53.160Z,68.35
2022-09-25T01:05:34.963Z,69.01
2022-09-25T01:08:08.168Z,69.81
2022-09-25T01:10:36.889Z,68.44
2022-09-25T01:13:06.587Z,68.63
2022-09-25T01:16:13.968Z,69.02
2022-09-25T01:18:51.089Z,68.28
2022-09-25T01:21:44.585Z,68.26
2022-09-25T01:24:42.443Z,68.27
2022-09-25T01:27:36.624Z,68.30
2022-09-25T01:30:18.804Z,69.14
2022-09-25T01:33:17.127Z,70.24
2022-09-25T01:36:06.404Z,69.49
2022-09-25T01:38:52.753Z,69.38
2022-09-25T01:41:35.920Z,69.05
2022-09-25T01:44:13.644Z,70.09
2022-09-25T01:46:49.522Z,69.97
2022-09-25T01:49:33.312Z,70.40
2022-09-25T01:52:10.350Z,71.03
2022-09-25T01:54:57.130Z,70.98
2022-09-25T01:57:38.493Z,71.25
2022-09-25T02:00:10.240Z,71.60
2022-09-25T02:02:58.563Z,70.92
2022-09-25T02:05:40.826Z,69.55
2022-09-25T02:08:21.647Z,69.43
2022-09-25T02:10:59.766Z,68.50
2022-09-25T02:13:39.054Z,68.62
2022-09-25T02:16:23.191Z,68.68
2022-09-25T02:19:11.265Z,68.00
2022-09-25T02:22:04.545Z,68.93
2022-09-25T02:24:59.136Z,69.36
2022-09-25T02:27:29.514Z,68.77
2022-09-25T02:30:01.536Z,69.92
2022-09-25T02:32:32.672Z,69.83
2022-09-25T02:35:01.241Z,71.06
2022-09-25T02:37:29.990Z,70.25
2022-09-25T02:40:02.773Z,71.12
2022-09-25T02:43:30.176Z,69.24
2022-09-25T02:46:13.473Z,67.93
2022-09-25T02:49:04.799Z,68.87
2022-09-25T02:51:57.725Z,69.16
2022-09-25T02:54:39.745Z,69.12
2022-09-25T02:57:43.605Z,69.94
2022-09-25T03:00:13.464Z,70.07
2022-09-25T03:02:48.166Z,70.51
2022-09-25T03:05:21.542Z,70.39
2022-09-25T03:08:08.607Z,71.91
2022-09-25T03:10:38.314Z,70.92
2022-09-25T03:13:18.705Z,69.68
2022-09-25T03:15:52.835Z,69.30
2022-09-25T03:18:21.978Z,68.46
2022-09-25T03:20:50.186Z,68.51
2022-09-25T03:23:18.824Z,69.18
2022-09-25T03:25:50.480Z,68.29
2022-09-25T03:28:19.824Z,67.60
2022-09-25T03:31:05.605Z,67.76
2022-09-25T03:33:42.746Z,70.41
2022-09-25T03:36:16.657Z,69.78
2022-09-25T03:38:48.318Z,67.95
2022-09-25T03:41:21.671Z,68.73
2022-09-25T03:43:54.303Z,68.45
2022-09-25T03:46:29.589Z,68.12
2022-09-25T03:48:59.000Z,67.36
2022-09-25T03:51:29.784Z,67.76
2022-09-25T03:53:58.429Z,68.58
2022-09-25T03:56:29.864Z,68.96
2022-09-25T03:58:58.510Z,67.60
2022-09-25T04:01:28.245Z,67.79
2022-09-25T04:03:56.714Z,67.56
2022-09-25T04:06:26.588Z,67.37
2022-09-25T04:08:55.431Z,68.32
2022-09-25T04:11:25.239Z,67.88
2022-09-25T04:13:53.410Z,68.08
2022-09-25T04:16:21.703Z,68.31
2022-09-25T04:18:50.717Z,67.37
2022-09-25T04:21:18.989Z,67.51
2022-09-25T04:24:07.188Z,67.17
2022-09-25T04:26:35.953Z,66.71
2022-09-25T04:34:07.686Z,67.42
2022-09-25T04:36:36.048Z,69.25
2022-09-25T04:39:04.232Z,68.81
2022-09-25T04:41:33.209Z,68.21
2022-09-25T04:44:05.413Z,68.26
2022-09-25T04:46:33.625Z,68.88
2022-09-25T04:49:01.834Z,67.46
2022-09-25T04:51:30.147Z,68.13
2022-09-25T04:53:58.375Z,67.61
2022-09-25T04:56:26.942Z,68.98
2022-09-25T04:58:55.136Z,67.66
2022-09-25T05:01:23.620Z,67.56
2022-09-25T05:03:54.161Z,67.08
2022-09-25T05:06:23.343Z,67.04
2022-09-25T05:08:52.402Z,67.02
2022-09-25T05:11:21.328Z,67.64
2022-09-25T05:13:51.792Z,67.52
2022-09-25T05:16:20.608Z,67.60
2022-09-25T05:18:48.996Z,69.37
2022-09-25T05:21:17.230Z,69.65
2022-09-25T05:23:45.540Z,69.89
2022-09-25T05:26:14.165Z,70.25
2022-09-25T05:28:42.393Z,70.02
2022-09-25T05:31:10.828Z,69.88
2022-09-25T05:33:39.128Z,69.39
2022-09-25T05:36:08.297Z,68.30
2022-09-25T05:38:39.077Z,69.54
2022-09-25T05:41:10.391Z,70.44
2022-09-25T05:43:43.205Z,69.21
2022-09-25T05:46:12.160Z,67.95
2022-09-25T05:48:40.432Z,67.17
2022-09-25T05:51:09.489Z,67.13
2022-09-25T05:53:38.277Z,67.32
2022-09-25T05:56:07.388Z,69.03
2022-09-25T05:58:35.901Z,68.86
2022-09-25T06:01:06.347Z,68.89
2022-09-25T06:03:34.854Z,68.99
2022-09-25T06:06:03.517Z,69.55
2022-09-25T06:08:32.443Z,68.83
2022-09-25T06:11:01.428Z,69.26
2022-09-25T06:13:33.230Z,69.68
2022-09-25T06:16:01.863Z,68.63
2022-09-25T06:18:30.191Z,67.92
2022-09-25T06:21:05.263Z,67.52
2022-09-25T06:23:33.463Z,68.42
2022-09-25T06:26:07.088Z,68.08
2022-09-25T06:28:35.625Z,68.11
2022-09-25T06:31:05.320Z,66.98
2022-09-25T06:33:33.721Z,67.05
2022-09-25T06:36:02.149Z,67.32
2022-09-25T06:38:30.324Z,66.89
2022-09-25T06:41:00.531Z,68.19
2022-09-25T06:43:30.139Z,67.59
2022-09-25T06:46:03.449Z,68.10
2022-09-25T06:48:32.132Z,69.35
2022-09-25T06:51:01.542Z,68.49
2022-09-25T06:53:30.550Z,68.35
2022-09-25T06:56:02.611Z,69.39
2022-09-25T06:58:31.406Z,69.57
2022-09-25T07:00:59.697Z,70.01
2022-09-25T07:03:46.708Z,68.93
2022-09-25T07:06:22.067Z,68.72
2022-09-25T07:08:51.333Z,69.52
2022-09-25T07:11:23.178Z,69.08
2022-09-25T07:13:55.276Z,69.42
2022-09-25T07:16:27.896Z,68.99
2022-09-25T07:19:00.379Z,67.50
2022-09-25T07:21:30.721Z,67.50
2022-09-25T07:23:59.146Z,67.81
2022-09-25T07:26:30.376Z,67.24
2022-09-25T07:29:05.065Z,67.42
2022-09-25T07:31:37.780Z,66.05
2022-09-25T07:34:09.608Z,66.86
2022-09-25T07:36:40.020Z,65.41
2022-09-25T07:39:08.524Z,66.31
2022-09-25T07:41:37.709Z,65.97
2022-09-25T07:44:24.755Z,66.04
2022-09-25T07:46:54.130Z,66.70
2022-09-25T07:49:22.326Z,65.69
2022-09-25T07:51:50.515Z,68.74
2022-09-25T07:54:18.754Z,69.76
2022-09-25T07:56:46.955Z,68.96
2022-09-25T07:59:15.237Z,66.98
2022-09-25T08:01:45.572Z,66.64
2022-09-25T08:04:14.534Z,65.89
2022-09-25T08:06:42.829Z,66.40
2022-09-25T08:09:13.971Z,66.90
2022-09-25T08:11:46.227Z,68.09
2022-09-25T08:14:16.822Z,68.60
2022-09-25T08:16:46.173Z,67.77
2022-09-25T08:19:17.849Z,67.35
2022-09-25T08:21:46.696Z,67.29
2022-09-25T08:24:15.674Z,66.65
2022-09-25T08:26:45.223Z,67.30
2022-09-25T08:29:14.055Z,65.99
2022-09-25T08:31:42.909Z,64.26
2022-09-25T08:34:36.322Z,67.16
2022-09-25T08:37:01.098Z,65.70
2022-09-25T08:39:29.608Z,64.71
2022-09-25T08:41:58.603Z,63.34
2022-09-25T08:45:09.008Z,66.06
2022-09-25T08:47:57.047Z,65.53
2022-09-25T08:50:26.925Z,63.91
2022-09-25T08:53:25.014Z,67.00
2022-09-25T08:56:12.607Z,65.91
2022-09-25T08:58:48.047Z,66.38
2022-09-25T09:01:26.745Z,64.49
2022-09-25T09:04:19.362Z,62.07
2022-09-25T09:07:25.158Z,60.02
2022-09-25T09:10:11.007Z,65.51
2022-09-25T09:12:53.480Z,64.34
2022-09-25T09:15:43.723Z,63.74
2022-09-25T09:18:22.528Z,62.73
2022-09-25T09:21:02.483Z,61.84
2022-09-25T09:23:58.252Z,60.38
2022-09-25T09:26:34.234Z,60.90
2022-09-25T09:29:29.166Z,60.54
2022-09-25T09:32:21.792Z,61.33
2022-09-25T09:35:23.942Z,64.22
2022-09-25T09:38:32.804Z,62.09
2022-09-25T09:41:16.620Z,62.20
2022-09-25T09:44:26.972Z,61.65
2022-09-25T09:47:14.238Z,61.31
2022-09-25T09:49:58.504Z,63.71
2022-09-25T09:52:41.845Z,61.34
2022-09-25T09:55:39.862Z,60.43
2022-09-25T09:58:26.953Z,59.78
2022-09-25T10:00:56.196Z,61.98
2022-09-25T10:03:33.506Z,60.44
2022-09-25T10:06:09.369Z,60.13
2022-09-25T10:08:37.630Z,61.57
2022-09-25T10:11:18.756Z,62.30
2022-09-25T10:13:48.880Z,59.28
2022-09-25T10:16:25.495Z,59.27
2022-09-25T10:31:21.062Z,56.37
2022-09-25T10:34:22.605Z,59.66
2022-09-25T10:36:54.045Z,57.04
2022-09-25T10:39:45.280Z,57.82
2022-09-25T10:42:39.302Z,58.27
2022-09-25T10:45:38.596Z,56.94
2022-09-25T10:48:50.310Z,57.50
2022-09-25T10:51:21.445Z,58.18
2022-09-25T10:54:09.570Z,57.87
2022-09-25T10:56:39.046Z,55.29
2022-09-25T10:59:27.297Z,55.43
2022-09-25T11:01:56.323Z,57.95
2022-09-25T11:04:31.007Z,59.26
2022-09-25T11:07:07.815Z,60.24
2022-09-25T11:09:44.908Z,57.05
2022-09-25T11:12:26.416Z,58.21
2022-09-25T11:15:05.729Z,55.83
2022-09-25T11:17:43.869Z,56.48
2022-09-25T11:20:16.476Z,54.66
2022-09-25T11:23:04.756Z,54.32
2022-09-25T11:26:08.177Z,57.30
2022-09-25T11:28:56.301Z,54.46
2022-09-25T11:32:10.400Z,57.33
2022-09-25T11:35:12.417Z,56.15
2022-09-25T11:37:52.632Z,55.86
2022-09-25T11:41:07.691Z,57.61
2022-09-25T11:44:05.878Z,57.33
2022-09-25T11:47:01.387Z,56.74
2022-09-25T11:49:34.545Z,54.71
2022-09-25T11:52:44.219Z,56.97
2022-09-25T11:55:27.631Z,55.84
2022-09-25T11:58:33.508Z,56.04
2022-09-25T12:01:18.262Z,57.42
2022-09-25T12:04:14.731Z,56.65
2022-09-25T12:07:29.314Z,58.26
2022-09-25T12:10:52.498Z,58.32
2022-09-25T12:14:08.418Z,57.33
2022-09-25T12:16:58.347Z,56.18
2022-09-25T12:19:54.053Z,57.03
2022-09-25T12:22:53.600Z,56.00
2022-09-25T12:25:53.160Z,55.11
2022-09-25T12:28:55.391Z,54.93
2022-09-25T12:31:53.578Z,55.90
2022-09-25T12:34:50.820Z,54.24
2022-09-25T12:37:45.042Z,51.93
2022-09-25T12:40:29.164Z,50.53
2022-09-25T12:43:11.820Z,51.25
2022-09-25T12:46:09.821Z,49.69
2022-09-25T12:48:45.186Z,49.02
2022-09-25T12:51:35.028Z,49.56
2022-09-25T12:54:35.867Z,51.33
2022-09-25T12:57:09.818Z,48.71
2022-09-25T12:59:53.184Z,48.92
2022-09-25T13:02:46.466Z,48.12
2022-09-25T13:05:42.432Z,47.66
2022-09-25T13:08:34.247Z,48.68
2022-09-25T13:11:19.680Z,48.60
2022-09-25T13:13:53.782Z,47.62
2022-09-25T13:16:22.302Z,46.73
2022-09-25T13:19:23.090Z,47.74
2022-09-25T13:21:59.075Z,51.16
2022-09-25T13:24:27.467Z,49.79
2022-09-25T13:27:03.508Z,50.56
2022-09-25T13:29:38.977Z,49.91
2022-09-25T13:32:23.265Z,47.84
2022-09-25T13:34:56.847Z,51.85
2022-09-25T13:37:38.665Z,47.50
2022-09-25T13:40:45.125Z,50.10
2022-09-25T13:43:28.965Z,49.17
2022-09-25T13:46:33.735Z,51.20
2022-09-25T13:49:35.245Z,48.74
2022-09-25T13:52:03.482Z,47.44
2022-09-25T13:54:33.879Z,50.30
2022-09-25T13:57:04.686Z,49.68
2022-09-25T13:59:39.106Z,48.54
2022-09-25T14:02:44.459Z,48.10
2022-09-25T14:05:22.060Z,48.39
2022-09-25T14:08:11.098Z,49.04
2022-09-25T14:10:57.711Z,48.47
2022-09-25T14:13:35.533Z,48.84
2022-09-25T14:16:26.375Z,48.55
2022-09-25T14:19:01.759Z,46.78
2022-09-25T14:21:38.741Z,48.23
2022-09-25T14:24:22.292Z,47.83
2022-09-25T14:26:53.640Z,49.47
2022-09-25T14:29:43.739Z,48.92
2022-09-25T14:32:56.183Z,48.28
2022-09-25T14:36:06.717Z,47.62
2022-09-25T14:39:00.794Z,48.04
2022-09-25T14:42:20.452Z,48.73
2022-09-25T14:45:15.146Z,48.62
2022-09-25T14:47:53.403Z,48.40
2022-09-25T14:50:34.539Z,47.85
2022-09-25T14:53:16.841Z,48.27
2022-09-25T14:55:57.512Z,47.41
2022-09-25T14:58:33.853Z,47.52
2022-09-25T15:01:35.828Z,47.83
2022-09-25T15:04:09.711Z,48.58
2022-09-25T15:06:44.096Z,48.51
2022-09-25T15:09:51.283Z,47.99
2022-09-25T15:12:34.545Z,48.21
2022-09-25T15:15:14.547Z,48.04
2022-09-25T15:17:58.659Z,49.46
2022-09-25T15:20:37.812Z,48.86
2022-09-25T15:23:19.824Z,48.59
2022-09-25T15:26:04.505Z,49.99
2022-09-25T15:28:42.298Z,49.79
2022-09-25T15:31:19.135Z,49.13
2022-09-25T15:34:15.510Z,51.00
2022-09-25T15:36:46.114Z,51.11
2022-09-25T15:39:23.712Z,50.64
2022-09-25T15:41:54.012Z,49.58
2022-09-25T15:44:28.735Z,49.78
2022-09-25T15:47:03.311Z,50.76
2022-09-25T15:49:43.575Z,55.84
2022-09-25T15:52:34.757Z,59.09
2022-09-25T15:59:03.884Z,58.30
2022-09-25T16:02:12.779Z,58.99
2022-09-25T16:04:52.556Z,59.29
2022-09-25T16:08:36.821Z,59.59
2022-09-25T16:11:25.440Z,59.92
2022-09-25T16:14:30.808Z,60.96
2022-09-25T16:17:01.312Z,60.33
2022-09-25T16:19:34.596Z,61.02
2022-09-25T16:22:23.720Z,61.96
2022-09-25T16:24:54.815Z,62.13
2022-09-25T16:27:48.181Z,61.91
2022-09-25T16:30:37.169Z,62.59
2022-09-25T16:33:31.940Z,60.57
2022-09-25T16:36:20.598Z,59.53
2022-09-25T16:39:09.459Z,59.74
2022-09-25T16:42:00.034Z,59.13
2022-09-25T16:44:49.353Z,61.02
2022-09-25T16:47:37.850Z,60.52
2022-09-25T16:50:33.673Z,59.91
2022-09-25T16:53:23.579Z,59.58
2022-09-25T16:56:22.230Z,60.78
2022-09-25T16:59:25.369Z,62.43
2022-09-25T17:02:32.871Z,62.75
2022-09-25T17:05:26.592Z,60.69
2022-09-25T17:08:21.648Z,61.48
2022-09-25T17:11:12.018Z,60.80
2022-09-25T17:14:00.870Z,60.68
2022-09-25T17:16:51.139Z,61.69
2022-09-25T17:19:39.607Z,61.50
2022-09-25T17:22:31.106Z,61.42
2022-09-25T17:25:26.403Z,60.40
2022-09-25T17:28:15.361Z,61.29
2022-09-25T17:31:04.862Z,60.73
2022-09-25T17:33:53.522Z,60.94
2022-09-25T17:36:41.994Z,61.59
2022-09-25T17:39:30.547Z,60.97
2022-09-25T17:42:19.016Z,62.65
2022-09-25T17:45:54.506Z,61.94
2022-09-25T17:48:43.032Z,62.87
2022-09-25T17:51:31.657Z,62.91
2022-09-25T17:54:20.791Z,62.55
2022-09-25T17:57:09.340Z,61.87
2022-09-25T17:59:57.824Z,64.87
2022-09-25T18:02:46.475Z,66.07
2022-09-25T18:05:35.333Z,63.75
2022-09-25T18:08:24.083Z,64.54
2022-09-25T18:11:13.766Z,63.17
2022-09-25T18:14:02.853Z,65.45
2022-09-25T18:16:51.322Z,65.55
2022-09-25T18:19:58.681Z,66.83
2022-09-25T18:22:47.365Z,64.88
2022-09-25T18:25:40.591Z,64.61
2022-09-25T18:28:30.070Z,66.73
2022-09-25T18:31:18.963Z,67.97
2022-09-25T18:34:07.514Z,67.56
2022-09-25T18:36:55.979Z,69.30
2022-09-25T18:39:46.234Z,67.87
2022-09-25T18:42:34.827Z,68.24
2022-09-25T18:45:23.318Z,68.21
2022-09-25T18:48:11.797Z,68.65
2022-09-25T18:51:00.291Z,67.75
2022-09-25T18:53:52.169Z,67.74
2022-09-25T18:56:41.049Z,67.99
2022-09-25T18:59:29.564Z,66.90
2022-09-25T19:02:31.064Z,66.95
2022-09-25T19:05:20.346Z,67.74
2022-09-25T19:08:10.809Z,69.33
2022-09-25T19:11:00.517Z,69.00
2022-09-25T19:13:49.921Z,67.74
2022-09-25T19:16:38.885Z,68.12
2022-09-25T19:19:32.988Z,69.65
2022-09-25T19:22:21.863Z,69.95
2022-09-25T19:25:11.263Z,70.42
2022-09-25T19:27:59.811Z,71.31
2022-09-25T19:31:04.516Z,70.63
2022-09-25T19:33:54.970Z,72.42
2022-09-25T19:36:43.530Z,71.77
2022-09-25T19:39:52.003Z,71.50
2022-09-25T19:42:40.495Z,72.25
2022-09-25T19:45:29.565Z,73.40
2022-09-25T19:48:18.133Z,71.38
2022-09-25T19:51:08.034Z,72.12
2022-09-25T19:53:56.716Z,72.61
2022-09-25T19:56:46.237Z,71.76
2022-09-25T19:59:35.719Z,71.86
2022-09-25T20:02:24.309Z,69.73
2022-09-25T20:05:12.937Z,68.20
2022-09-25T20:08:01.605Z,70.07
2022-09-25T20:10:50.224Z,69.15
2022-09-25T20:13:38.755Z,68.92
2022-09-25T20:16:29.416Z,69.82
2022-09-25T20:19:19.303Z,69.25
2022-09-25T20:22:07.812Z,67.51
2022-09-25T20:24:56.264Z,67.63
2022-09-25T20:27:52.278Z,69.34
2022-09-25T20:30:40.878Z,68.88
2022-09-25T20:33:33.870Z,70.81
2022-09-25T20:36:23.416Z,70.65
2022-09-25T20:39:15.587Z,72.32
2022-09-25T20:42:06.863Z,75.22
2022-09-25T20:44:55.658Z,73.76
2022-09-25T20:47:46.322Z,75.36
2022-09-25T20:50:37.191Z,73.65
2022-09-25T20:53:25.763Z,73.36
2022-09-25T20:56:15.973Z,74.08
2022-09-25T20:59:05.983Z,77.68
2022-09-25T21:01:54.506Z,77.99
2022-09-25T21:04:44.981Z,76.09
2022-09-25T21:07:33.510Z,76.94
2022-09-25T21:10:21.970Z,77.61
2022-09-25T21:13:10.419Z,75.98
2022-09-25T21:16:12.504Z,75.96
2022-09-25T21:19:04.902Z,77.73
2022-09-25T21:21:53.461Z,75.46
2022-09-25T21:24:41.995Z,77.33
2022-09-25T21:27:30.802Z,77.07
2022-09-25T21:30:19.452Z,76.62
2022-09-25T21:33:07.891Z,77.08
2022-09-25T21:35:56.359Z,76.42
2022-09-25T21:38:45.010Z,78.87
2022-09-25T21:41:35.126Z,77.77
2022-09-25T21:44:24.921Z,75.36
2022-09-25T21:47:13.632Z,75.00
2022-09-25T21:50:02.080Z,77.52
2022-09-25T21:52:51.651Z,78.66
2022-09-25T21:55:40.971Z,80.52
2022-09-25T21:58:30.627Z,80.37
2022-09-25T22:01:24.081Z,80.54
2022-09-25T22:04:14.704Z,80.98
2022-09-25T22:07:03.182Z,82.06
2022-09-25T22:09:51.713Z,82.88
2022-09-25T22:12:40.223Z,83.00
2022-09-25T22:15:28.807Z,83.63
2022-09-25T22:18:17.343Z,81.21
2022-09-25T22:21:05.815Z,82.24
2022-09-25T22:23:54.860Z,82.75
2022-09-25T22:26:46.510Z,81.98
2022-09-25T22:29:37.272Z,82.50
2022-09-25T22:32:25.709Z,81.46
2022-09-25T22:35:14.203Z,84.70
2022-09-25T22:38:02.747Z,85.17
2022-09-25T22:40:51.292Z,82.78
2022-09-25T22:43:41.345Z,82.57
2022-09-25T22:46:29.882Z,82.62
2022-09-25T22:49:18.760Z,84.40
2022-09-25T22:52:07.317Z,83.22
2022-09-25T22:54:55.780Z,82.53
2022-09-25T22:57:44.227Z,82.22
2022-09-25T23:00:33.273Z,81.66
2022-09-25T23:03:24.414Z,82.82
2022-09-25T23:06:13.225Z,82.40
2022-09-25T23:09:06.246Z,81.76
2022-09-25T23:11:56.852Z,83.47
2022-09-25T23:14:45.400Z,81.93
2022-09-25T23:17:33.918Z,81.34
2022-09-25T23:20:23.761Z,82.71
2022-09-25T23:23:12.302Z,83.19
2022-09-25T23:26:07.526Z,81.22
2022-09-25T23:28:57.608Z,79.67
2022-09-25T23:31:48.651Z,80.74
2022-09-25T23:34:37.137Z,83.61
2022-09-25T23:37:25.628Z,83.21
2022-09-25T23:40:15.861Z,81.44
2022-09-25T23:43:04.846Z,81.24
2022-09-25T23:45:54.539Z,82.13
2022-09-25T23:48:44.160Z,80.34
2022-09-25T23:51:33.068Z,82.37
2022-09-25T23:54:21.712Z,82.36
2022-09-25T23:57:10.247Z,82.58
2022-09-25T23:59:58.691Z,83.29
